Time;durP1;ratioP1;P1;durP2;ratioP2;P2;SDS_P1;SDS_P2;PMS_P1;PMS_P2;Temp;Humidity;BMP_temperature;BMP_pressure;BME280_temperature;BME280_humidity;BME280_pressure;Samples;Min_cycle;Max_cycle;Signal;HPM_P1;HPM_P2
2021/03/09 00:00:23;;;;;;;0.87;0.63;;;;;;;;;;5008636;28;20202;-49
2021/03/09 00:02:48;;;;;;;0.60;0.60;;;;;;;;;;5011460;28;20191;-49
2021/03/09 00:05:14;;;;;;;0.80;0.80;;;;;;;;;;5016965;28;20356;-49
2021/03/09 00:07:40;;;;;;;1.17;1.07;;;;;;;;;;4998750;28;20233;-47
2021/03/09 00:10:06;;;;;;;1.30;1.17;;;;;;;;;;5011695;28;20196;-49
2021/03/09 00:12:32;;;;;;;2.23;1.23;;;;;;;;;;5005480;28;20234;-49
2021/03/09 00:14:57;;;;;;;1.30;1.20;;;;;;;;;;5006632;28;20215;-50
2021/03/09 00:17:22;;;;;;;1.17;1.07;;;;;;;;;;5002829;28;20191;-49
2021/03/09 00:19:48;;;;;;;0.80;0.50;;;;;;;;;;4999842;28;20286;-50
2021/03/09 00:22:13;;;;;;;2.93;1.00;;;;;;;;;;4999525;28;20580;-49
2021/03/09 00:24:38;;;;;;;1.00;0.77;;;;;;;;;;5003760;28;20206;-50
2021/03/09 00:27:04;;;;;;;0.77;0.77;;;;;;;;;;5004031;28;20629;-50
2021/03/09 00:29:30;;;;;;;0.80;0.80;;;;;;;;;;5006212;28;20214;-49
2021/03/09 00:31:55;;;;;;;1.37;1.27;;;;;;;;;;5013028;28;20190;-51
2021/03/09 00:34:21;;;;;;;1.43;1.33;;;;;;;;;;4977019;28;20310;-48
2021/03/09 00:36:46;;;;;;;5.03;1.10;;;;;;;;;;4989615;28;20195;-47
2021/03/09 00:39:12;;;;;;;0.50;0.50;;;;;;;;;;5016251;28;20203;-48
2021/03/09 00:41:37;;;;;;;0.57;0.50;;;;;;;;;;5009183;28;20191;-48
2021/03/09 00:44:03;;;;;;;1.13;1.00;;;;;;;;;;4996063;28;20249;-47
2021/03/09 00:46:28;;;;;;;1.77;1.03;;;;;;;;;;5002490;28;20205;-50
2021/03/09 00:48:53;;;;;;;1.70;0.73;;;;;;;;;;5015512;28;20226;-49
2021/03/09 00:51:18;;;;;;;0.43;0.43;;;;;;;;;;5006283;28;20283;-49
2021/03/09 00:53:44;;;;;;;3.47;2.40;;;;;;;;;;5011075;28;20226;-50
2021/03/09 00:56:09;;;;;;;1.57;1.10;;;;;;;;;;4993960;28;20195;-49
2021/03/09 00:58:34;;;;;;;1.50;0.90;;;;;;;;;;5006043;28;20191;-50
2021/03/09 01:00:59;;;;;;;0.60;0.40;;;;;;;;;;5005240;28;20195;-47
2021/03/09 01:03:25;;;;;;;1.90;0.93;;;;;;;;;;5006443;28;20245;-50
2021/03/09 01:05:50;;;;;;;0.60;0.60;;;;;;;;;;5009049;28;20195;-49
2021/03/09 01:08:16;;;;;;;0.50;0.50;;;;;;;;;;5004384;28;20205;-51
2021/03/09 01:10:41;;;;;;;0.67;0.50;;;;;;;;;;5011536;28;20191;-50
2021/03/09 01:13:07;;;;;;;1.33;1.23;;;;;;;;;;4997115;28;20246;-49
2021/03/09 01:15:32;;;;;;;0.37;0.37;;;;;;;;;;5003143;28;20298;-49
2021/03/09 01:17:58;;;;;;;0.90;0.70;;;;;;;;;;4983417;28;20195;-48
2021/03/09 01:20:23;;;;;;;1.03;0.63;;;;;;;;;;4985995;28;20653;-50
2021/03/09 01:22:48;;;;;;;0.90;0.90;;;;;;;;;;5005782;28;20190;-48
2021/03/09 01:25:14;;;;;;;0.40;0.40;;;;;;;;;;5002282;28;20644;-50
2021/03/09 01:27:39;;;;;;;1.77;1.20;;;;;;;;;;4989734;28;20191;-50
2021/03/09 01:30:07;;;;;;;0.83;0.83;;;;;;;;;;5013446;28;20207;-49
2021/03/09 01:32:33;;;;;;;1.30;0.90;;;;;;;;;;5012338;28;20884;-49
2021/03/09 01:34:58;;;;;;;1.40;1.17;;;;;;;;;;5003436;28;20290;-50
2021/03/09 01:37:24;;;;;;;2.13;1.20;;;;;;;;;;5011987;28;20191;-49
2021/03/09 01:39:49;;;;;;;1.27;0.80;;;;;;;;;;5004604;28;20195;-49
2021/03/09 01:42:14;;;;;;;0.70;0.70;;;;;;;;;;4987872;28;20231;-50
2021/03/09 01:44:40;;;;;;;1.33;0.90;;;;;;;;;;5003556;28;20214;-49
2021/03/09 01:47:05;;;;;;;2.20;1.33;;;;;;;;;;4996592;28;20195;-50
2021/03/09 01:49:37;;;;;;;1.67;1.20;;;;;;;;;;5007868;28;20202;-49
2021/03/09 01:52:05;;;;;;;0.70;0.70;;;;;;;;;;5004831;28;20214;-48
2021/03/09 01:54:31;;;;;;;2.77;1.20;;;;;;;;;;4994752;28;20304;-51
2021/03/09 01:56:57;;;;;;;3.50;0.90;;;;;;;;;;4988873;28;20222;-49
2021/03/09 01:59:22;;;;;;;1.03;0.90;;;;;;;;;;5003358;28;20230;-48
2021/03/09 02:01:48;;;;;;;1.43;0.80;;;;;;;;;;5001716;28;20195;-49
2021/03/09 02:04:14;;;;;;;2.17;1.33;;;;;;;;;;4995550;28;20207;-50
2021/03/09 02:06:39;;;;;;;1.03;0.97;;;;;;;;;;4994206;28;20196;-50
2021/03/09 02:09:06;;;;;;;2.73;1.20;;;;;;;;;;5006169;28;20188;-50
2021/03/09 02:11:50;;;;;;;0.63;0.50;;;;;;;;;;5010983;28;20241;-48
2021/03/09 02:14:15;;;;;;;1.10;0.70;;;;;;;;;;5002470;28;20310;-48
2021/03/09 02:16:51;;;;;;;1.40;1.10;;;;;;;;;;5006774;28;20706;-49
2021/03/09 02:19:28;;;;;;;1.93;1.20;;;;;;;;;;4998611;28;20252;-48
2021/03/09 02:22:24;;;;;;;1.40;1.10;;;;;;;;;;5009712;28;20191;-50
2021/03/09 02:25:04;;;;;;;1.50;0.90;;;;;;;;;;5006384;28;20228;-49
2021/03/09 02:27:47;;;;;;;1.57;1.07;;;;;;;;;;5005456;28;20195;-48
2021/03/09 02:30:22;;;;;;;1.47;0.80;;;;;;;;;;5008505;28;20192;-48
2021/03/09 02:33:10;;;;;;;1.27;0.97;;;;;;;;;;5003411;28;20640;-50
2021/03/09 02:35:45;;;;;;;3.13;1.30;;;;;;;;;;5003706;28;20216;-49
2021/03/09 02:38:12;;;;;;;0.70;0.70;;;;;;;;;;4998940;28;20195;-47
2021/03/09 02:40:38;;;;;;;1.37;0.77;;;;;;;;;;5019020;28;20687;-53
2021/03/09 02:43:14;;;;;;;1.23;1.13;;;;;;;;;;5007232;28;20226;-49
2021/03/09 02:45:40;;;;;;;1.90;0.67;;;;;;;;;;5007026;28;20206;-51
2021/03/09 02:48:07;;;;;;;1.83;1.20;;;;;;;;;;5009397;28;20199;-50
2021/03/09 02:50:34;;;;;;;0.67;0.67;;;;;;;;;;4991594;28;20226;-50
2021/03/09 02:53:13;;;;;;;1.80;0.60;;;;;;;;;;5010075;28;20234;-48
2021/03/09 02:55:41;;;;;;;1.10;0.97;;;;;;;;;;5007140;28;20215;-48
2021/03/09 02:58:08;;;;;;;1.00;0.90;;;;;;;;;;4990087;28;20264;-49
2021/03/09 03:00:36;;;;;;;2.33;1.47;;;;;;;;;;4993956;28;20758;-53
2021/03/09 03:03:07;;;;;;;3.03;0.77;;;;;;;;;;5011615;28;20262;-48
2021/03/09 03:05:34;;;;;;;1.60;1.00;;;;;;;;;;5005353;28;20199;-47
2021/03/09 03:08:03;;;;;;;2.67;2.00;;;;;;;;;;5002676;28;20192;-49
2021/03/09 03:10:28;;;;;;;0.67;0.53;;;;;;;;;;5002465;28;20199;-50
2021/03/09 03:12:54;;;;;;;1.20;1.10;;;;;;;;;;5003350;28;20210;-49
2021/03/09 03:15:20;;;;;;;3.87;1.13;;;;;;;;;;5012089;28;20214;-49
2021/03/09 03:17:46;;;;;;;2.43;1.73;;;;;;;;;;5016033;28;20218;-47
2021/03/09 03:20:15;;;;;;;2.10;1.17;;;;;;;;;;5013449;28;20244;-49
2021/03/09 03:22:42;;;;;;;1.13;1.00;;;;;;;;;;5006499;28;20182;-52
2021/03/09 03:25:09;;;;;;;3.23;1.83;;;;;;;;;;4999869;28;20253;-47
2021/03/09 03:27:37;;;;;;;1.77;1.13;;;;;;;;;;5001230;28;20183;-49
2021/03/09 03:30:06;;;;;;;1.27;0.80;;;;;;;;;;5008024;28;20188;-47
2021/03/09 03:32:31;;;;;;;2.43;1.43;;;;;;;;;;4985692;28;20291;-51
2021/03/09 03:34:57;;;;;;;1.13;0.83;;;;;;;;;;5014494;28;20373;-47
2021/03/09 03:37:23;;;;;;;3.57;2.43;;;;;;;;;;4999630;28;20189;-49
2021/03/09 03:39:48;;;;;;;1.80;1.00;;;;;;;;;;5005359;28;20233;-49
2021/03/09 03:42:16;;;;;;;1.10;0.87;;;;;;;;;;5005621;28;20210;-50
2021/03/09 03:44:41;;;;;;;0.70;0.70;;;;;;;;;;5017510;28;20374;-48
2021/03/09 03:47:06;;;;;;;1.30;1.10;;;;;;;;;;5003865;28;20690;-49
2021/03/09 03:49:32;;;;;;;2.20;1.23;;;;;;;;;;5000653;28;20187;-54
2021/03/09 03:52:18;;;;;;;0.87;0.80;;;;;;;;;;5005392;28;20191;-48
2021/03/09 03:55:04;;;;;;;1.90;1.40;;;;;;;;;;4998760;28;20216;-48
2021/03/09 03:57:36;;;;;;;1.37;0.97;;;;;;;;;;4992234;28;20195;-50
2021/03/09 04:00:03;;;;;;;4.23;1.20;;;;;;;;;;5005026;28;20188;-48
2021/03/09 04:02:29;;;;;;;1.23;0.80;;;;;;;;;;5004614;28;20187;-47
2021/03/09 04:04:55;;;;;;;2.70;1.13;;;;;;;;;;4996399;28;20251;-47
2021/03/09 04:07:25;;;;;;;1.67;1.10;;;;;;;;;;4998505;28;20214;-47
2021/03/09 04:09:54;;;;;;;1.63;1.17;;;;;;;;;;5004870;28;20195;-50
2021/03/09 04:12:23;;;;;;;1.53;0.60;;;;;;;;;;4994779;28;20674;-47
2021/03/09 04:14:49;;;;;;;0.90;0.80;;;;;;;;;;4999725;28;20251;-50
2021/03/09 04:17:14;;;;;;;1.20;1.00;;;;;;;;;;5003108;28;20277;-50
2021/03/09 04:19:40;;;;;;;1.43;1.23;;;;;;;;;;4999842;28;20294;-47
2021/03/09 04:22:08;;;;;;;1.67;1.47;;;;;;;;;;5014480;28;20207;-50
2021/03/09 04:24:35;;;;;;;0.43;0.43;;;;;;;;;;5008296;28;20702;-55
2021/03/09 04:27:00;;;;;;;2.27;1.60;;;;;;;;;;5011945;28;20282;-47
2021/03/09 04:29:26;;;;;;;1.40;0.87;;;;;;;;;;5008367;28;20270;-48
2021/03/09 04:31:52;;;;;;;7.03;1.43;;;;;;;;;;4991352;28;20199;-47
2021/03/09 04:34:17;;;;;;;4.87;1.47;;;;;;;;;;4990272;28;20221;-50
2021/03/09 04:36:44;;;;;;;1.97;1.00;;;;;;;;;;5003839;28;20194;-50
2021/03/09 04:39:10;;;;;;;4.00;1.20;;;;;;;;;;4997173;28;20206;-49
2021/03/09 04:41:36;;;;;;;2.93;1.60;;;;;;;;;;5015185;28;20182;-48
2021/03/09 04:44:03;;;;;;;2.40;1.80;;;;;;;;;;4986505;28;20239;-50
2021/03/09 04:46:29;;;;;;;5.20;2.40;;;;;;;;;;4998898;28;20238;-48
2021/03/09 04:48:56;;;;;;;6.17;2.17;;;;;;;;;;4999966;28;20203;-47
2021/03/09 04:51:22;;;;;;;4.37;2.63;;;;;;;;;;5009337;28;20278;-48
2021/03/09 04:53:48;;;;;;;4.10;2.30;;;;;;;;;;5003234;28;20243;-47
2021/03/09 04:56:13;;;;;;;5.03;2.63;;;;;;;;;;4990369;28;20218;-49
2021/03/09 04:58:39;;;;;;;3.50;2.40;;;;;;;;;;5005927;28;20708;-50
2021/03/09 05:01:05;;;;;;;11.17;3.20;;;;;;;;;;5004704;28;20195;-49
2021/03/09 05:03:31;;;;;;;5.57;3.07;;;;;;;;;;5003605;28;20198;-49
2021/03/09 05:05:57;;;;;;;6.07;2.77;;;;;;;;;;4996783;28;20234;-49
2021/03/09 05:08:24;;;;;;;4.77;2.93;;;;;;;;;;5002182;28;20237;-48
2021/03/09 05:10:49;;;;;;;5.43;2.60;;;;;;;;;;5003514;28;20581;-48
2021/03/09 05:13:16;;;;;;;4.80;2.47;;;;;;;;;;5010578;28;20207;-49
2021/03/09 05:15:41;;;;;;;3.27;1.70;;;;;;;;;;5006363;28;20623;-48
2021/03/09 05:18:07;;;;;;;2.30;1.33;;;;;;;;;;5014096;28;20228;-49
2021/03/09 05:20:32;;;;;;;4.93;1.23;;;;;;;;;;5006158;28;20195;-51
2021/03/09 05:22:57;;;;;;;0.73;0.73;;;;;;;;;;4991652;28;20223;-48
2021/03/09 05:25:25;;;;;;;3.90;1.80;;;;;;;;;;5010600;28;20275;-51
2021/03/09 05:27:50;;;;;;;2.63;1.67;;;;;;;;;;4990528;28;20245;-50
2021/03/09 05:30:19;;;;;;;3.80;2.57;;;;;;;;;;5003519;28;20655;-49
2021/03/09 05:32:45;;;;;;;3.33;1.73;;;;;;;;;;5014834;28;20214;-51
2021/03/09 05:35:12;;;;;;;4.10;1.40;;;;;;;;;;5001226;28;20235;-49
2021/03/09 05:37:38;;;;;;;2.17;1.47;;;;;;;;;;5003499;28;20659;-48
2021/03/09 05:40:04;;;;;;;3.63;1.97;;;;;;;;;;5012135;28;20199;-48
2021/03/09 05:42:30;;;;;;;4.03;2.33;;;;;;;;;;4997740;28;20326;-50
2021/03/09 05:44:57;;;;;;;3.50;2.40;;;;;;;;;;5005446;28;20302;-50
2021/03/09 05:47:23;;;;;;;7.17;3.23;;;;;;;;;;4994738;28;20242;-50
2021/03/09 05:49:48;;;;;;;5.23;2.80;;;;;;;;;;5000533;28;20598;-50
2021/03/09 05:52:18;;;;;;;8.53;3.20;;;;;;;;;;5018546;28;20214;-50
2021/03/09 05:54:44;;;;;;;4.13;2.67;;;;;;;;;;5008658;28;20762;-49
2021/03/09 05:57:09;;;;;;;4.23;3.30;;;;;;;;;;5008595;28;20239;-50
2021/03/09 05:59:34;;;;;;;6.10;2.63;;;;;;;;;;5007342;28;20195;-47
2021/03/09 06:02:00;;;;;;;2.97;1.53;;;;;;;;;;5008013;28;20305;-49
2021/03/09 06:04:25;;;;;;;3.17;2.13;;;;;;;;;;5004580;28;20215;-48
2021/03/09 06:06:51;;;;;;;3.30;2.00;;;;;;;;;;5008264;28;20207;-49
2021/03/09 06:09:36;;;;;;;1.77;1.43;;;;;;;;;;5000758;28;20198;-49
2021/03/09 06:12:24;;;;;;;4.00;1.60;;;;;;;;;;4992738;28;20237;-49
2021/03/09 06:14:55;;;;;;;4.47;1.43;;;;;;;;;;5006910;28;20234;-47
2021/03/09 06:17:32;;;;;;;1.07;0.87;;;;;;;;;;5002069;28;20191;-49
2021/03/09 06:19:57;;;;;;;5.20;1.40;;;;;;;;;;5017134;28;21097;-49
2021/03/09 06:22:41;;;;;;;4.40;2.67;;;;;;;;;;5016768;28;20603;-49
2021/03/09 06:25:09;;;;;;;1.37;0.93;;;;;;;;;;5011278;28;20268;-49
2021/03/09 06:27:35;;;;;;;3.37;1.90;;;;;;;;;;5009401;28;20192;-50
2021/03/09 06:30:01;;;;;;;1.33;0.97;;;;;;;;;;4991592;28;20196;-51
2021/03/09 06:32:38;;;;;;;6.33;3.57;;;;;;;;;;5011886;28;20203;-50
2021/03/09 06:35:04;;;;;;;3.70;2.70;;;;;;;;;;5006606;28;20223;-52
2021/03/09 06:37:29;;;;;;;6.10;2.53;;;;;;;;;;5008623;28;20218;-50
2021/03/09 06:40:03;;;;;;;2.40;2.10;;;;;;;;;;4991361;28;20222;-51
2021/03/09 06:42:37;;;;;;;4.77;2.57;;;;;;;;;;5006866;28;20280;-49
2021/03/09 06:45:07;;;;;;;6.37;3.07;;;;;;;;;;5009872;28;20646;-48
2021/03/09 06:47:38;;;;;;;5.83;3.37;;;;;;;;;;4993184;28;20188;-48
2021/03/09 06:50:17;;;;;;;6.70;2.93;;;;;;;;;;5006622;28;20192;-52
2021/03/09 06:52:44;;;;;;;5.40;3.17;;;;;;;;;;4998593;28;20329;-50
2021/03/09 06:55:11;;;;;;;3.40;2.57;;;;;;;;;;4994434;28;20310;-50
2021/03/09 06:57:38;;;;;;;2.73;1.97;;;;;;;;;;5008536;28;20268;-50
2021/03/09 07:00:10;;;;;;;1.87;1.57;;;;;;;;;;5007669;28;20204;-47
2021/03/09 07:02:36;;;;;;;4.17;2.17;;;;;;;;;;4998558;28;20659;-48
2021/03/09 07:05:10;;;;;;;2.63;1.80;;;;;;;;;;4991850;28;20210;-50
2021/03/09 07:07:40;;;;;;;4.00;2.87;;;;;;;;;;4998076;28;20199;-52
2021/03/09 07:10:13;;;;;;;5.67;3.50;;;;;;;;;;5007052;28;20188;-51
2021/03/09 07:12:41;;;;;;;4.50;2.93;;;;;;;;;;4984989;28;20223;-49
2021/03/09 07:15:09;;;;;;;3.80;2.33;;;;;;;;;;5006700;28;20227;-51
2021/03/09 07:17:36;;;;;;;6.90;3.10;;;;;;;;;;5006069;28;20187;-50
2021/03/09 07:20:09;;;;;;;4.70;2.83;;;;;;;;;;5010771;28;20187;-49
2021/03/09 07:22:42;;;;;;;6.00;3.37;;;;;;;;;;5006352;28;20198;-49
2021/03/09 07:25:12;;;;;;;6.00;3.67;;;;;;;;;;4993396;28;20261;-47
2021/03/09 07:27:41;;;;;;;5.10;2.70;;;;;;;;;;5001417;28;20199;-46
2021/03/09 07:30:10;;;;;;;5.40;3.30;;;;;;;;;;5010899;28;20231;-51
2021/03/09 07:32:39;;;;;;;3.43;2.30;;;;;;;;;;5008621;28;20298;-52
2021/03/09 07:35:06;;;;;;;5.87;3.30;;;;;;;;;;5010735;28;20215;-51
2021/03/09 07:37:34;;;;;;;5.90;3.40;;;;;;;;;;4995503;28;20219;-47
2021/03/09 07:40:00;;;;;;;5.17;3.63;;;;;;;;;;5007918;28;20191;-49
2021/03/09 07:42:25;;;;;;;11.37;3.67;;;;;;;;;;5009562;28;20195;-49
2021/03/09 07:44:50;;;;;;;5.30;3.50;;;;;;;;;;4999026;28;20211;-49
2021/03/09 07:47:18;;;;;;;4.77;3.10;;;;;;;;;;5005115;28;20322;-50
2021/03/09 07:49:45;;;;;;;6.27;2.97;;;;;;;;;;4995534;28;20648;-48
2021/03/09 07:52:16;;;;;;;4.97;3.50;;;;;;;;;;5002051;28;20537;-49
2021/03/09 07:55:10;;;;;;;8.20;4.10;;;;;;;;;;4990543;28;20219;-50
2021/03/09 07:57:37;;;;;;;5.23;3.47;;;;;;;;;;4986483;28;20592;-48
2021/03/09 08:00:07;;;;;;;4.80;1.93;;;;;;;;;;5000018;28;20183;-47
2021/03/09 08:02:43;;;;;;;3.80;2.43;;;;;;;;;;4999394;28;20191;-50
2021/03/09 08:05:10;;;;;;;6.67;3.83;;;;;;;;;;4993308;28;20337;-50
2021/03/09 08:07:51;;;;;;;4.77;2.27;;;;;;;;;;5003919;28;20217;-50
2021/03/09 08:10:28;;;;;;;8.77;4.23;;;;;;;;;;4999286;28;20224;-48
2021/03/09 08:12:55;;;;;;;5.03;3.53;;;;;;;;;;4996632;28;20238;-51
2021/03/09 08:15:22;;;;;;;8.80;4.40;;;;;;;;;;5005393;28;20215;-48
2021/03/09 08:17:48;;;;;;;6.17;2.97;;;;;;;;;;5007262;28;20593;-49
2021/03/09 08:20:54;;;;;;;2.70;2.17;;;;;;;;;;4979622;28;20199;-47
2021/03/09 08:23:35;;;;;;;5.07;3.00;;;;;;;;;;4995178;28;20534;-50
2021/03/09 08:26:15;;;;;;;2.23;1.67;;;;;;;;;;5001942;28;20187;-49
2021/03/09 08:28:43;;;;;;;3.90;3.30;;;;;;;;;;5003834;28;20191;-50
2021/03/09 08:31:08;;;;;;;2.53;1.67;;;;;;;;;;5004273;28;20206;-50
2021/03/09 08:33:35;;;;;;;3.10;2.20;;;;;;;;;;5001815;28;20207;-49
2021/03/09 08:36:02;;;;;;;3.77;2.50;;;;;;;;;;4999369;28;20526;-48
2021/03/09 08:38:28;;;;;;;8.50;4.70;;;;;;;;;;4995656;28;20191;-48
2021/03/09 08:41:02;;;;;;;3.53;2.40;;;;;;;;;;5000233;28;20561;-48
2021/03/09 08:43:27;;;;;;;2.97;1.80;;;;;;;;;;5004952;28;20266;-49
2021/03/09 08:45:52;;;;;;;3.80;2.83;;;;;;;;;;5004824;28;20282;-50
2021/03/09 08:48:48;;;;;;;6.17;3.83;;;;;;;;;;5001799;28;20718;-49
2021/03/09 08:51:42;;;;;;;5.93;3.43;;;;;;;;;;5003847;28;20645;-49
2021/03/09 08:54:37;;;;;;;5.93;3.90;;;;;;;;;;4999251;28;20214;-47
2021/03/09 08:57:06;;;;;;;4.87;3.67;;;;;;;;;;5001303;28;20599;-48
2021/03/09 08:59:33;;;;;;;10.00;4.87;;;;;;;;;;5008153;28;20702;-50
2021/03/09 09:02:18;;;;;;;6.80;3.67;;;;;;;;;;5002272;28;20179;-48
2021/03/09 09:04:52;;;;;;;7.70;5.07;;;;;;;;;;4989832;28;20257;-48
2021/03/09 09:07:29;;;;;;;7.77;5.10;;;;;;;;;;4982310;28;20195;-49
2021/03/09 09:09:57;;;;;;;7.37;4.80;;;;;;;;;;5005520;28;20195;-48
2021/03/09 09:12:25;;;;;;;5.63;3.07;;;;;;;;;;4988968;28;20577;-49
2021/03/09 09:15:00;;;;;;;7.87;4.87;;;;;;;;;;4997678;28;20294;-49
2021/03/09 09:17:27;;;;;;;14.17;4.87;;;;;;;;;;5005183;28;20725;-50
2021/03/09 09:20:00;;;;;;;9.80;5.57;;;;;;;;;;5003901;28;20187;-51
2021/03/09 09:22:26;;;;;;;10.57;5.40;;;;;;;;;;4999603;28;20266;-53
2021/03/09 09:25:02;;;;;;;13.37;5.80;;;;;;;;;;5006794;28;20221;-50
2021/03/09 09:27:30;;;;;;;10.17;5.80;;;;;;;;;;4999005;28;20637;-48
2021/03/09 09:29:56;;;;;;;9.93;5.80;;;;;;;;;;5002218;28;20229;-47
2021/03/09 09:32:23;;;;;;;10.93;6.57;;;;;;;;;;4999714;28;20489;-49
2021/03/09 09:34:57;;;;;;;12.13;5.97;;;;;;;;;;4999443;28;20699;-50
2021/03/09 09:37:23;;;;;;;12.23;6.33;;;;;;;;;;4997747;28;20257;-50
2021/03/09 09:39:48;;;;;;;13.30;6.17;;;;;;;;;;5002232;28;20194;-48
2021/03/09 09:42:15;;;;;;;9.17;6.03;;;;;;;;;;5008621;28;20197;-47
2021/03/09 09:44:40;;;;;;;9.33;6.60;;;;;;;;;;4989118;28;20286;-49
2021/03/09 09:47:07;;;;;;;11.87;6.57;;;;;;;;;;5004873;28;20386;-49
2021/03/09 09:49:32;;;;;;;10.50;5.77;;;;;;;;;;5001195;28;20693;-49
2021/03/09 09:51:58;;;;;;;6.43;4.83;;;;;;;;;;5003455;28;20270;-47
2021/03/09 09:54:23;;;;;;;7.33;5.27;;;;;;;;;;5001709;28;20592;-48
2021/03/09 09:56:48;;;;;;;5.77;3.80;;;;;;;;;;5005665;28;20219;-46
2021/03/09 09:59:27;;;;;;;7.00;3.63;;;;;;;;;;4988955;28;20599;-50
2021/03/09 10:01:52;;;;;;;9.43;5.07;;;;;;;;;;5002854;28;20186;-51
2021/03/09 10:04:18;;;;;;;8.93;5.43;;;;;;;;;;5008189;28;20274;-50
2021/03/09 10:06:46;;;;;;;3.97;3.00;;;;;;;;;;5001368;28;20616;-49
2021/03/09 10:09:17;;;;;;;9.73;4.40;;;;;;;;;;4982058;28;20283;-49
2021/03/09 10:11:49;;;;;;;8.33;5.57;;;;;;;;;;5003694;28;20578;-47
2021/03/09 10:14:16;;;;;;;7.60;4.63;;;;;;;;;;4979784;28;20204;-48
2021/03/09 10:16:42;;;;;;;6.83;3.80;;;;;;;;;;5004108;28;20187;-48
2021/03/09 10:19:10;;;;;;;4.80;2.87;;;;;;;;;;4980415;28;20560;-52
2021/03/09 10:21:36;;;;;;;9.20;5.43;;;;;;;;;;5002340;28;20618;-48
2021/03/09 10:24:03;;;;;;;8.60;5.60;;;;;;;;;;5005777;28;20421;-48
2021/03/09 10:26:41;;;;;;;8.10;4.53;;;;;;;;;;4998164;28;20647;-48
2021/03/09 10:29:14;;;;;;;9.40;5.37;;;;;;;;;;4992354;28;20180;-50
2021/03/09 10:31:40;;;;;;;7.43;4.20;;;;;;;;;;5005264;28;20195;-50
2021/03/09 10:34:06;;;;;;;4.27;2.77;;;;;;;;;;5005181;28;20711;-49
2021/03/09 10:37:07;;;;;;;6.97;4.43;;;;;;;;;;4995469;28;20234;-49
2021/03/09 10:39:34;;;;;;;3.60;2.60;;;;;;;;;;4949285;29;20222;-51
2021/03/09 10:42:29;;;;;;;4.93;2.90;;;;;;;;;;4996944;28;20198;-47
2021/03/09 10:45:00;;;;;;;4.60;2.93;;;;;;;;;;4998013;28;20222;-50
2021/03/09 10:47:26;;;;;;;3.90;2.63;;;;;;;;;;5003107;28;20669;-49
2021/03/09 10:49:51;;;;;;;4.73;1.93;;;;;;;;;;5009171;28;20438;-49
2021/03/09 10:52:16;;;;;;;2.93;1.73;;;;;;;;;;5002158;28;20721;-56
2021/03/09 10:54:42;;;;;;;6.30;3.07;;;;;;;;;;4987918;28;20650;-48
2021/03/09 10:57:09;;;;;;;7.13;2.63;;;;;;;;;;5006622;28;20214;-47
2021/03/09 10:59:34;;;;;;;4.90;2.60;;;;;;;;;;5004791;28;20218;-50
2021/03/09 11:02:00;;;;;;;3.00;2.13;;;;;;;;;;4984390;28;20211;-50
2021/03/09 11:04:27;;;;;;;7.40;3.80;;;;;;;;;;5004816;28;20212;-49
2021/03/09 11:06:53;;;;;;;7.43;3.60;;;;;;;;;;4998857;28;20188;-50
2021/03/09 11:09:18;;;;;;;8.73;5.07;;;;;;;;;;5016472;28;20550;-54
2021/03/09 11:11:44;;;;;;;5.57;3.97;;;;;;;;;;5008117;28;20571;-48
2021/03/09 11:14:10;;;;;;;6.00;2.67;;;;;;;;;;5009467;28;20222;-49
2021/03/09 11:16:35;;;;;;;7.77;4.03;;;;;;;;;;4989094;28;20194;-51
2021/03/09 11:19:01;;;;;;;3.93;2.20;;;;;;;;;;4994228;28;20187;-52
2021/03/09 11:21:27;;;;;;;4.73;2.77;;;;;;;;;;4983620;28;20187;-50
2021/03/09 11:23:53;;;;;;;8.77;5.20;;;;;;;;;;5005698;28;20353;-49
2021/03/09 11:26:22;;;;;;;10.13;5.77;;;;;;;;;;5006143;28;20198;-49
2021/03/09 11:28:49;;;;;;;11.87;5.80;;;;;;;;;;4992147;28;20183;-49
2021/03/09 11:31:15;;;;;;;7.40;3.33;;;;;;;;;;5008452;28;20188;-51
2021/03/09 11:33:41;;;;;;;5.83;4.20;;;;;;;;;;5006320;28;20586;-50
2021/03/09 11:36:07;;;;;;;8.10;5.13;;;;;;;;;;5007792;28;20196;-51
2021/03/09 11:38:32;;;;;;;9.20;4.70;;;;;;;;;;5005907;28;20259;-49
2021/03/09 11:40:58;;;;;;;9.73;5.90;;;;;;;;;;5008619;28;20713;-50
2021/03/09 11:43:23;;;;;;;10.87;6.60;;;;;;;;;;5000166;28;20188;-50
2021/03/09 11:45:49;;;;;;;5.67;2.90;;;;;;;;;;5003383;28;20215;-52
2021/03/09 11:48:14;;;;;;;7.07;4.30;;;;;;;;;;5000570;28;20310;-49
2021/03/09 11:50:39;;;;;;;12.20;6.03;;;;;;;;;;5009078;28;20206;-47
2021/03/09 11:53:05;;;;;;;9.27;5.37;;;;;;;;;;5007237;28;20203;-48
2021/03/09 11:55:30;;;;;;;7.00;5.07;;;;;;;;;;5004674;28;20578;-51
2021/03/09 11:57:55;;;;;;;9.87;5.30;;;;;;;;;;5000655;28;20369;-48
2021/03/09 12:00:22;;;;;;;7.53;5.63;;;;;;;;;;5002941;28;20203;-48
2021/03/09 12:02:48;;;;;;;8.27;5.67;;;;;;;;;;5005961;28;20233;-49
2021/03/09 12:05:13;;;;;;;9.97;5.30;;;;;;;;;;4989751;28;20705;-49
2021/03/09 12:07:39;;;;;;;12.20;7.03;;;;;;;;;;4997661;28;20212;-49
2021/03/09 12:10:05;;;;;;;10.53;5.90;;;;;;;;;;5002822;28;20195;-50
2021/03/09 12:12:31;;;;;;;9.00;6.30;;;;;;;;;;5005729;28;20238;-51
2021/03/09 12:14:56;;;;;;;3.57;2.90;;;;;;;;;;5003815;28;20219;-49
2021/03/09 12:17:21;;;;;;;5.47;3.57;;;;;;;;;;5014117;28;20186;-52
2021/03/09 12:19:47;;;;;;;4.90;3.40;;;;;;;;;;4990243;28;20191;-49
2021/03/09 12:22:12;;;;;;;5.53;3.43;;;;;;;;;;4999514;28;20202;-48
2021/03/09 12:24:37;;;;;;;5.97;2.90;;;;;;;;;;5002990;28;20222;-52
2021/03/09 12:27:02;;;;;;;4.30;2.70;;;;;;;;;;5000600;28;20214;-47
2021/03/09 12:29:28;;;;;;;4.13;2.83;;;;;;;;;;5007104;28;20188;-48
2021/03/09 12:31:53;;;;;;;5.80;3.33;;;;;;;;;;5004742;28;20187;-49
2021/03/09 12:34:18;;;;;;;8.00;4.87;;;;;;;;;;4988696;28;20330;-48
2021/03/09 12:36:44;;;;;;;9.33;6.27;;;;;;;;;;5003241;28;20665;-50
2021/03/09 12:39:09;;;;;;;5.93;3.93;;;;;;;;;;5007699;28;20195;-48
2021/03/09 12:41:34;;;;;;;11.40;5.10;;;;;;;;;;5000554;28;20196;-50
2021/03/09 12:44:00;;;;;;;4.40;2.97;;;;;;;;;;5003127;28;20207;-47
2021/03/09 12:46:25;;;;;;;10.20;6.57;;;;;;;;;;5002462;28;20779;-48
2021/03/09 12:48:50;;;;;;;12.57;6.37;;;;;;;;;;4998692;28;20183;-50
2021/03/09 12:51:15;;;;;;;9.00;5.50;;;;;;;;;;4999256;28;20224;-49
2021/03/09 12:53:41;;;;;;;7.00;4.50;;;;;;;;;;4990551;28;20219;-49
2021/03/09 12:56:06;;;;;;;3.20;2.73;;;;;;;;;;5008582;28;20191;-48
2021/03/09 12:58:34;;;;;;;11.10;5.67;;;;;;;;;;5002136;28;20291;-50
2021/03/09 13:00:59;;;;;;;12.33;6.33;;;;;;;;;;5000331;28;20204;-48
2021/03/09 13:03:24;;;;;;;5.33;3.23;;;;;;;;;;5003272;28;20198;-51
2021/03/09 13:05:50;;;;;;;8.57;3.47;;;;;;;;;;5000158;28;20215;-49
2021/03/09 13:08:15;;;;;;;4.07;2.63;;;;;;;;;;5004594;28;20215;-50
2021/03/09 13:10:40;;;;;;;8.57;6.13;;;;;;;;;;4999866;28;20196;-50
2021/03/09 13:13:06;;;;;;;8.17;4.53;;;;;;;;;;4985876;28;20253;-48
2021/03/09 13:15:31;;;;;;;7.73;4.70;;;;;;;;;;4990028;28;20300;-50
2021/03/09 13:17:56;;;;;;;6.67;4.47;;;;;;;;;;5006858;28;20682;-47
2021/03/09 13:20:22;;;;;;;7.97;3.70;;;;;;;;;;5003196;28;20576;-48
2021/03/09 13:22:47;;;;;;;7.73;5.07;;;;;;;;;;4998619;28;20190;-50
2021/03/09 13:25:13;;;;;;;4.17;2.90;;;;;;;;;;5002898;28;20237;-47
2021/03/09 13:27:40;;;;;;;12.70;8.00;;;;;;;;;;5008091;28;20253;-47
2021/03/09 13:30:11;;;;;;;11.73;6.80;;;;;;;;;;5006023;28;20191;-48
2021/03/09 13:32:36;;;;;;;9.10;4.57;;;;;;;;;;5003304;28;20309;-47
2021/03/09 13:35:02;;;;;;;9.87;5.50;;;;;;;;;;5009074;28;20322;-49
2021/03/09 13:37:27;;;;;;;6.87;5.00;;;;;;;;;;4997970;28;20194;-50
2021/03/09 13:39:53;;;;;;;6.77;4.00;;;;;;;;;;4993559;28;20655;-49
2021/03/09 13:42:18;;;;;;;10.13;6.63;;;;;;;;;;5005881;28;20199;-48
2021/03/09 13:44:43;;;;;;;9.43;4.53;;;;;;;;;;5004782;28;20807;-46
2021/03/09 13:47:08;;;;;;;8.30;4.77;;;;;;;;;;5005480;28;20215;-47
2021/03/09 13:49:36;;;;;;;9.47;5.97;;;;;;;;;;5000566;28;20346;-47
2021/03/09 13:52:02;;;;;;;9.63;6.53;;;;;;;;;;5001828;28;20701;-48
2021/03/09 13:54:27;;;;;;;13.50;7.50;;;;;;;;;;5004954;28;20225;-49
2021/03/09 13:56:52;;;;;;;6.50;4.50;;;;;;;;;;5005273;28;20187;-50
2021/03/09 13:59:17;;;;;;;11.63;5.50;;;;;;;;;;5007853;28;20656;-49
2021/03/09 14:01:43;;;;;;;14.37;7.67;;;;;;;;;;5002764;28;20286;-47
2021/03/09 14:04:08;;;;;;;13.97;8.40;;;;;;;;;;4988766;28;20604;-48
2021/03/09 14:06:34;;;;;;;10.30;6.37;;;;;;;;;;4983882;28;20275;-52
2021/03/09 14:08:59;;;;;;;13.07;7.00;;;;;;;;;;4996170;28;20671;-49
2021/03/09 14:11:25;;;;;;;19.00;11.60;;;;;;;;;;5000647;28;20187;-49
2021/03/09 14:13:50;;;;;;;8.43;5.20;;;;;;;;;;5006087;28;20219;-48
2021/03/09 14:16:15;;;;;;;11.37;5.27;;;;;;;;;;5006154;28;20199;-49
2021/03/09 14:18:40;;;;;;;9.50;6.37;;;;;;;;;;4994330;28;20394;-47
2021/03/09 14:21:06;;;;;;;10.17;6.37;;;;;;;;;;5009567;28;20195;-50
2021/03/09 14:23:31;;;;;;;8.23;5.67;;;;;;;;;;5004339;28;20617;-49
2021/03/09 14:25:56;;;;;;;15.23;9.13;;;;;;;;;;5008464;28;20546;-47
2021/03/09 14:28:22;;;;;;;14.73;9.10;;;;;;;;;;5001247;28;20280;-47
2021/03/09 14:30:47;;;;;;;13.73;6.27;;;;;;;;;;5007963;28;20222;-47
2021/03/09 14:33:13;;;;;;;11.23;5.87;;;;;;;;;;5004941;28;20812;-51
2021/03/09 14:35:40;;;;;;;10.17;6.03;;;;;;;;;;5006301;28;20198;-49
2021/03/09 14:38:06;;;;;;;8.37;4.53;;;;;;;;;;5006231;28;20201;-49
2021/03/09 14:40:31;;;;;;;8.17;4.20;;;;;;;;;;4995309;28;20195;-48
2021/03/09 14:42:57;;;;;;;10.13;6.07;;;;;;;;;;5000608;28;20234;-48
2021/03/09 14:45:23;;;;;;;7.33;5.53;;;;;;;;;;5001299;28;20665;-47